Time;durP1;ratioP1;P1;durP2;ratioP2;P2;SDS_P1;SDS_P2;PMS_P1;PMS_P2;Temp;Humidity;BMP_temperature;BMP_pressure;BME280_temperature;BME280_humidity;BME280_pressure;Samples;Min_cycle;Max_cycle;Signal;HPM_P1;HPM_P2
2023/08/02 00:02:09;;;;;;;6.47;2.58;;;15.70;99.90;;;;;;5082098;28;20116;-62
2023/08/02 00:04:35;;;;;;;7.05;3.45;;;15.70;99.90;;;;;;5072289;28;20072;-63
2023/08/02 00:07:01;;;;;;;6.53;3.38;;;15.70;99.90;;;;;;5086986;28;20044;-63
2023/08/02 00:09:27;;;;;;;6.50;3.08;;;15.80;99.90;;;;;;5090598;28;20044;-63
2023/08/02 00:11:53;;;;;;;5.72;2.78;;;15.70;99.90;;;;;;5084877;28;20043;-63
2023/08/02 00:14:18;;;;;;;5.43;2.63;;;15.70;99.90;;;;;;5073725;28;20090;-62
2023/08/02 00:16:44;;;;;;;5.90;2.58;;;15.80;99.90;;;;;;5072970;28;20162;-63
2023/08/02 00:19:10;;;;;;;8.77;2.90;;;15.70;99.90;;;;;;5091476;28;20043;-63
2023/08/02 00:21:35;;;;;;;8.52;3.03;;;15.70;99.90;;;;;;5087268;28;20039;-63
2023/08/02 00:24:01;;;;;;;8.80;3.72;;;15.80;99.90;;;;;;5091770;28;20035;-63
2023/08/02 00:26:27;;;;;;;9.18;3.03;;;15.80;99.90;;;;;;5093513;28;20397;-63
2023/08/02 00:28:53;;;;;;;7.28;2.88;;;15.80;99.90;;;;;;5091871;28;20128;-63
2023/08/02 00:31:19;;;;;;;8.00;3.22;;;15.80;99.90;;;;;;5090278;28;20434;-63
2023/08/02 00:33:45;;;;;;;8.45;3.35;;;15.80;99.90;;;;;;5072534;28;20051;-63
2023/08/02 00:36:10;;;;;;;10.52;3.53;;;15.80;99.90;;;;;;5073402;28;20068;-62
2023/08/02 00:38:36;;;;;;;6.70;3.00;;;15.80;99.90;;;;;;5071902;28;20068;-62
2023/08/02 00:41:06;;;;;;;7.20;3.08;;;15.80;99.90;;;;;;5072535;28;20056;-63
2023/08/02 00:43:46;;;;;;;7.38;3.15;;;15.80;99.90;;;;;;5085892;28;20051;-62
2023/08/02 00:46:14;;;;;;;8.13;3.58;;;15.80;99.90;;;;;;5091791;28;20032;-62
2023/08/02 00:48:42;;;;;;;6.70;3.47;;;15.80;99.90;;;;;;5091215;28;20131;-63
2023/08/02 00:51:12;;;;;;;8.90;3.33;;;15.80;99.90;;;;;;5080154;28;20102;-63
2023/08/02 00:53:38;;;;;;;7.18;2.83;;;15.80;99.90;;;;;;5071431;28;20123;-63
2023/08/02 00:56:04;;;;;;;9.40;3.15;;;15.80;99.90;;;;;;5073092;28;20115;-63
2023/08/02 00:58:32;;;;;;;5.72;2.85;;;15.80;99.90;;;;;;5080578;28;20051;-62
2023/08/02 01:01:07;;;;;;;9.10;2.80;;;15.80;99.90;;;;;;5089908;28;20055;-63
2023/08/02 01:03:39;;;;;;;10.40;2.97;;;15.80;99.90;;;;;;5092378;28;20050;-63
2023/08/02 01:06:28;;;;;;;7.55;3.20;;;15.80;99.90;;;;;;5090015;28;20104;-63
2023/08/02 01:09:07;;;;;;;8.55;2.90;;;15.80;99.90;;;;;;5092438;28;20491;-63
2023/08/02 01:11:49;;;;;;;8.95;3.10;;;15.80;99.90;;;;;;5089756;28;20109;-63
2023/08/02 01:14:19;;;;;;;6.65;3.03;;;15.80;99.90;;;;;;5090800;28;20047;-63
2023/08/02 01:16:46;;;;;;;8.27;2.88;;;15.80;99.90;;;;;;5092331;28;20098;-63
2023/08/02 01:19:11;;;;;;;6.30;3.00;;;15.80;99.90;;;;;;5090394;28;20090;-63
2023/08/02 01:21:38;;;;;;;12.02;3.88;;;15.80;99.90;;;;;;5109405;27;20489;-62
2023/08/02 01:24:05;;;;;;;9.00;2.75;;;15.80;99.90;;;;;;5071009;28;20512;-63
2023/08/02 01:26:33;;;;;;;10.20;3.83;;;15.80;99.90;;;;;;5053532;28;20460;-63
2023/08/02 01:29:05;;;;;;;7.00;3.20;;;15.80;99.90;;;;;;5072190;28;20040;-62
2023/08/02 01:31:32;;;;;;;7.18;3.50;;;15.80;99.90;;;;;;5089092;28;20383;-63
2023/08/02 01:33:59;;;;;;;8.45;4.43;;;15.80;99.90;;;;;;5090104;28;20043;-62
2023/08/02 01:36:25;;;;;;;11.05;4.50;;;15.80;99.90;;;;;;5074432;28;20063;-63
2023/08/02 01:38:54;;;;;;;9.70;4.22;;;15.80;99.90;;;;;;5125046;28;20469;-62
2023/08/02 01:41:19;;;;;;;9.30;4.70;;;15.80;99.90;;;;;;5078098;28;20447;-62
2023/08/02 01:43:45;;;;;;;10.88;4.20;;;15.80;99.90;;;;;;5070533;28;20044;-62
2023/08/02 01:46:11;;;;;;;6.55;3.55;;;15.80;99.90;;;;;;5082481;28;20048;-63
2023/08/02 01:48:37;;;;;;;9.00;4.30;;;15.80;99.90;;;;;;5122744;28;20413;-63
2023/08/02 01:51:02;;;;;;;8.38;4.60;;;15.80;99.90;;;;;;5091711;28;20063;-63
2023/08/02 01:53:28;;;;;;;7.68;4.40;;;15.90;99.90;;;;;;5125293;28;20044;-62
2023/08/02 01:55:54;;;;;;;9.43;4.60;;;15.80;99.90;;;;;;5082304;28;20039;-63
2023/08/02 01:58:19;;;;;;;8.48;4.60;;;15.90;99.90;;;;;;5124514;28;20067;-62
2023/08/02 02:00:46;;;;;;;8.68;4.72;;;15.80;99.90;;;;;;5116560;28;20046;-63
2023/08/02 02:03:11;;;;;;;7.35;4.80;;;15.80;99.90;;;;;;5090023;28;20051;-62
2023/08/02 02:05:37;;;;;;;11.25;5.53;;;15.80;99.90;;;;;;5090910;28;20040;-62
2023/08/02 02:08:03;;;;;;;11.57;4.82;;;15.80;99.90;;;;;;5107283;28;20512;-63
2023/08/02 02:10:29;;;;;;;9.95;4.85;;;15.80;99.90;;;;;;5078555;28;20024;-62
2023/08/02 02:12:55;;;;;;;13.20;5.65;;;15.80;99.90;;;;;;5091850;28;20440;-63
2023/08/02 02:15:20;;;;;;;10.07;5.47;;;15.80;99.90;;;;;;5094088;28;20111;-62
2023/08/02 02:17:46;;;;;;;9.40;5.22;;;15.80;99.90;;;;;;5110622;28;20032;-63
2023/08/02 02:20:12;;;;;;;12.05;5.82;;;15.80;99.90;;;;;;5093794;28;20127;-63
2023/08/02 02:22:39;;;;;;;11.38;5.57;;;15.90;99.90;;;;;;5093035;28;20048;-63
2023/08/02 02:25:05;;;;;;;8.98;5.57;;;15.80;99.90;;;;;;5095670;28;20044;-62
2023/08/02 02:27:30;;;;;;;12.55;5.68;;;15.80;99.90;;;;;;5095696;28;20082;-63
2023/08/02 02:29:56;;;;;;;11.52;6.18;;;15.80;99.90;;;;;;5083759;28;20083;-63
2023/08/02 02:32:21;;;;;;;10.02;5.25;;;15.80;99.90;;;;;;5090457;28;20044;-63
2023/08/02 02:34:47;;;;;;;8.73;4.47;;;15.80;99.90;;;;;;5127988;27;20052;-63
2023/08/02 02:37:13;;;;;;;12.05;5.18;;;15.80;99.90;;;;;;5094796;28;20378;-63
2023/08/02 02:39:38;;;;;;;9.10;5.10;;;15.80;99.90;;;;;;5094590;28;20396;-63
2023/08/02 02:42:04;;;;;;;10.80;5.53;;;15.80;99.90;;;;;;5095255;28;20404;-63
2023/08/02 02:44:41;;;;;;;8.85;5.10;;;15.70;99.90;;;;;;5093469;28;20043;-63
2023/08/02 02:47:08;;;;;;;9.70;4.70;;;15.80;99.90;;;;;;5095271;28;20047;-62
2023/08/02 02:49:33;;;;;;;10.07;4.88;;;15.80;99.90;;;;;;5090052;28;20111;-62
2023/08/02 02:51:59;;;;;;;10.02;5.35;;;15.80;99.90;;;;;;5091475;28;20497;-62
2023/08/02 02:54:25;;;;;;;9.75;4.80;;;15.80;99.90;;;;;;5085801;28;20029;-63
2023/08/02 02:56:50;;;;;;;10.30;5.43;;;15.70;99.90;;;;;;5125155;27;20040;-63
2023/08/02 02:59:16;;;;;;;9.57;5.05;;;15.80;99.90;;;;;;5112761;27;20052;-62
2023/08/02 03:01:42;;;;;;;12.82;5.30;;;15.80;99.90;;;;;;5072838;28;20131;-63
2023/08/02 03:04:07;;;;;;;13.75;5.72;;;15.80;99.90;;;;;;5077650;28;20071;-63
2023/08/02 03:06:33;;;;;;;10.57;5.43;;;15.80;99.90;;;;;;5075906;28;20064;-63
2023/08/02 03:08:58;;;;;;;7.95;5.03;;;15.80;99.90;;;;;;5107673;28;20671;-63
2023/08/02 03:11:24;;;;;;;9.52;5.72;;;15.80;99.90;;;;;;5090157;28;20075;-63
2023/08/02 03:13:50;;;;;;;14.50;5.55;;;15.80;99.90;;;;;;5055391;28;20036;-63
2023/08/02 03:16:15;;;;;;;12.32;5.65;;;15.70;99.90;;;;;;5074647;28;20055;-62
2023/08/02 03:18:41;;;;;;;14.77;5.53;;;15.80;99.90;;;;;;5081884;28;20043;-63
2023/08/02 03:21:07;;;;;;;13.90;5.95;;;15.70;99.90;;;;;;5086180;28;20048;-63
2023/08/02 03:23:34;;;;;;;12.13;5.90;;;15.80;99.90;;;;;;5076349;28;20105;-63
2023/08/02 03:26:00;;;;;;;13.93;5.63;;;15.70;99.90;;;;;;5092222;28;20058;-63
2023/08/02 03:28:26;;;;;;;14.35;5.57;;;15.70;99.90;;;;;;5092425;28;20123;-63
2023/08/02 03:30:54;;;;;;;10.85;5.05;;;15.70;99.90;;;;;;5084237;28;20089;-63
2023/08/02 03:33:20;;;;;;;10.52;4.95;;;15.70;99.90;;;;;;5092243;28;20036;-63
2023/08/02 03:35:45;;;;;;;12.95;5.32;;;15.70;99.90;;;;;;5093758;28;20031;-63
2023/08/02 03:38:11;;;;;;;12.98;4.80;;;15.70;99.90;;;;;;5127134;27;20160;-63
2023/08/02 03:40:37;;;;;;;10.43;4.93;;;15.60;99.90;;;;;;5092166;28;20047;-63
2023/08/02 03:43:02;;;;;;;13.50;5.43;;;15.60;99.90;;;;;;5126677;27;20040;-62
2023/08/02 03:45:28;;;;;;;16.00;4.97;;;15.60;99.90;;;;;;5126742;27;20062;-62
2023/08/02 03:47:54;;;;;;;11.52;5.05;;;15.60;99.90;;;;;;5092408;28;20047;-62
2023/08/02 03:50:19;;;;;;;10.25;4.93;;;15.50;99.90;;;;;;5092753;28;20044;-63
2023/08/02 03:52:45;;;;;;;10.52;5.10;;;15.50;99.90;;;;;;5093507;28;20056;-62
2023/08/02 03:55:11;;;;;;;10.88;4.78;;;15.50;99.90;;;;;;5077971;28;20115;-62
2023/08/02 03:57:36;;;;;;;16.80;6.20;;;15.50;99.90;;;;;;5089034;28;20043;-63
2023/08/02 04:00:03;;;;;;;16.25;5.80;;;15.50;99.90;;;;;;5081732;28;20044;-63
2023/08/02 04:02:28;;;;;;;13.45;5.53;;;15.50;99.90;;;;;;5092004;28;20040;-63
2023/08/02 04:04:54;;;;;;;11.77;5.50;;;15.50;99.90;;;;;;5093666;28;20412;-63
2023/08/02 04:07:20;;;;;;;11.68;5.10;;;15.50;99.90;;;;;;5088834;28;20028;-63
2023/08/02 04:09:45;;;;;;;14.73;6.13;;;15.50;99.90;;;;;;5070797;28;20124;-63
2023/08/02 04:12:11;;;;;;;18.70;7.03;;;15.60;99.90;;;;;;5072181;28;20474;-62
2023/08/02 04:14:37;;;;;;;12.15;6.80;;;15.50;99.90;;;;;;5090125;28;20032;-62
2023/08/02 04:17:03;;;;;;;14.35;6.18;;;15.50;99.90;;;;;;5086656;28;20071;-63
2023/08/02 04:19:28;;;;;;;20.20;7.85;;;15.60;99.90;;;;;;5069076;28;20040;-63
2023/08/02 04:21:54;;;;;;;16.02;6.50;;;15.60;99.90;;;;;;5116726;27;20044;-62
2023/08/02 04:24:20;;;;;;;16.25;6.97;;;15.50;99.90;;;;;;5126336;27;20068;-63
2023/08/02 04:26:45;;;;;;;21.25;6.90;;;15.60;99.90;;;;;;5091942;28;20077;-62
2023/08/02 04:29:11;;;;;;;17.00;6.50;;;15.60;99.90;;;;;;5082151;28;20119;-63
2023/08/02 04:31:36;;;;;;;23.60;6.80;;;15.60;99.90;;;;;;5126090;27;20500;-63
2023/08/02 04:34:02;;;;;;;14.65;6.95;;;15.60;99.90;;;;;;5125945;27;20055;-62
2023/08/02 04:36:28;;;;;;;14.82;7.53;;;15.50;99.90;;;;;;5090366;28;20036;-62
2023/08/02 04:38:53;;;;;;;19.80;7.03;;;15.60;99.90;;;;;;5076350;28;20123;-62
2023/08/02 04:41:19;;;;;;;23.90;7.88;;;15.60;99.90;;;;;;5072982;28;20040;-63
2023/08/02 04:43:48;;;;;;;20.55;8.07;;;15.60;99.90;;;;;;5087186;28;20194;-63
2023/08/02 04:46:14;;;;;;;14.50;6.78;;;15.60;99.90;;;;;;5087376;28;20710;-62
2023/08/02 04:48:39;;;;;;;15.43;5.90;;;15.50;99.90;;;;;;5083472;28;20044;-62
2023/08/02 04:51:09;;;;;;;15.88;7.47;;;15.60;99.90;;;;;;5107292;28;20451;-62
2023/08/02 04:53:35;;;;;;;15.95;7.20;;;15.50;99.90;;;;;;5087251;28;20385;-63
2023/08/02 04:56:01;;;;;;;15.00;7.25;;;15.60;99.90;;;;;;5070690;28;20036;-62
2023/08/02 04:58:26;;;;;;;19.38;7.13;;;15.50;99.90;;;;;;5082140;28;20109;-63
2023/08/02 05:00:52;;;;;;;23.30;7.80;;;15.60;99.90;;;;;;5080813;28;20076;-62
2023/08/02 05:03:18;;;;;;;13.40;6.72;;;15.50;99.90;;;;;;5089289;28;20040;-62
2023/08/02 05:05:43;;;;;;;15.30;7.32;;;15.50;99.90;;;;;;5090117;28;20040;-62
2023/08/02 05:08:09;;;;;;;15.70;7.28;;;15.60;99.90;;;;;;5082390;28;20123;-63
2023/08/02 05:10:37;;;;;;;16.85;7.13;;;15.60;99.90;;;;;;5072305;28;20040;-62
2023/08/02 05:13:05;;;;;;;16.65;8.00;;;15.60;99.90;;;;;;5071525;28;20040;-62
2023/08/02 05:15:40;;;;;;;14.77;7.35;;;15.50;99.90;;;;;;5075691;28;20397;-62
2023/08/02 05:18:06;;;;;;;15.27;7.13;;;15.50;99.90;;;;;;5090118;28;20047;-62
2023/08/02 05:20:33;;;;;;;16.80;6.95;;;15.60;99.90;;;;;;5092215;28;20032;-62
2023/08/02 05:22:59;;;;;;;16.60;7.40;;;15.50;99.90;;;;;;5092500;28;20394;-62
2023/08/02 05:25:32;;;;;;;14.43;6.32;;;15.60;99.90;;;;;;5091890;28;20043;-62
2023/08/02 05:27:59;;;;;;;16.70;7.57;;;15.60;99.90;;;;;;5084758;28;20067;-62
2023/08/02 05:30:26;;;;;;;14.73;7.97;;;15.60;99.90;;;;;;5054935;28;20072;-62
2023/08/02 05:32:52;;;;;;;15.25;7.20;;;15.60;99.90;;;;;;5087164;28;20064;-62
2023/08/02 05:35:18;;;;;;;13.68;6.72;;;15.60;99.90;;;;;;5090812;28;20060;-63
2023/08/02 05:37:43;;;;;;;18.05;7.18;;;15.70;99.90;;;;;;5091170;28;20461;-63
2023/08/02 05:40:10;;;;;;;14.07;6.82;;;15.80;99.90;;;;;;5091654;28;20085;-62
2023/08/02 05:42:35;;;;;;;13.25;6.60;;;15.70;99.90;;;;;;5088168;28;20051;-62
2023/08/02 05:45:01;;;;;;;12.70;6.57;;;15.80;99.90;;;;;;5124709;28;20044;-63
2023/08/02 05:47:27;;;;;;;15.23;8.00;;;15.80;99.90;;;;;;5073758;28;20047;-63
2023/08/02 05:49:53;;;;;;;16.02;7.22;;;15.80;99.90;;;;;;5083144;28;20040;-62
2023/08/02 05:52:19;;;;;;;11.93;7.35;;;15.80;99.90;;;;;;5092053;28;20071;-62
2023/08/02 05:54:45;;;;;;;16.25;7.80;;;15.80;99.90;;;;;;5076001;28;20036;-63
2023/08/02 05:57:10;;;;;;;18.40;8.15;;;15.80;99.90;;;;;;5077166;28;20036;-62
2023/08/02 05:59:37;;;;;;;11.63;8.20;;;15.90;99.90;;;;;;5102960;28;20036;-62
2023/08/02 06:02:09;;;;;;;13.52;7.60;;;15.90;99.90;;;;;;5111954;28;20120;-62
2023/08/02 06:04:38;;;;;;;16.00;7.68;;;16.00;99.90;;;;;;5072742;28;20049;-62
2023/08/02 06:07:05;;;;;;;14.73;6.85;;;16.00;99.90;;;;;;5083410;28;20051;-63
2023/08/02 06:09:31;;;;;;;14.55;7.50;;;16.00;99.90;;;;;;5073765;28;20500;-63
2023/08/02 06:11:57;;;;;;;13.52;7.35;;;16.00;99.90;;;;;;5092890;28;20044;-63
2023/08/02 06:14:23;;;;;;;14.25;7.63;;;16.10;99.90;;;;;;5091600;28;20051;-63
2023/08/02 06:16:49;;;;;;;16.85;8.55;;;16.20;99.90;;;;;;5107602;28;20069;-63
2023/08/02 06:19:15;;;;;;;19.55;8.82;;;16.20;99.90;;;;;;5109808;28;20032;-63
2023/08/02 06:21:41;;;;;;;14.75;7.70;;;16.10;99.90;;;;;;5095608;28;20139;-62
2023/08/02 06:24:07;;;;;;;16.55;8.15;;;16.10;99.90;;;;;;5090908;28;20040;-63
2023/08/02 06:26:32;;;;;;;12.77;7.60;;;16.10;99.90;;;;;;5093262;28;20032;-62
2023/08/02 06:28:58;;;;;;;12.55;8.05;;;16.10;99.90;;;;;;5116550;27;20036;-62
2023/08/02 06:31:24;;;;;;;13.27;7.72;;;16.10;99.90;;;;;;5088173;28;20337;-62
2023/08/02 06:33:49;;;;;;;15.60;7.40;;;16.10;99.90;;;;;;5092042;28;20047;-63
2023/08/02 06:36:15;;;;;;;11.73;7.38;;;16.10;99.90;;;;;;5113204;27;20040;-62
2023/08/02 06:38:41;;;;;;;17.48;8.45;;;16.10;99.90;;;;;;5107822;27;20055;-63
2023/08/02 06:41:07;;;;;;;12.18;7.93;;;16.10;99.90;;;;;;5088595;28;20123;-63
2023/08/02 06:43:32;;;;;;;12.75;6.80;;;16.10;99.90;;;;;;5070765;28;20052;-63
2023/08/02 06:45:58;;;;;;;14.68;7.65;;;16.10;99.90;;;;;;5072440;28;20047;-62
2023/08/02 06:48:25;;;;;;;12.05;6.05;;;16.10;99.90;;;;;;5072706;28;20059;-63
2023/08/02 06:50:52;;;;;;;17.10;8.02;;;16.10;99.90;;;;;;5072706;28;20056;-63
2023/08/02 06:53:18;;;;;;;13.63;7.32;;;16.10;99.90;;;;;;5090896;28;20040;-63
2023/08/02 06:55:44;;;;;;;13.45;7.72;;;16.20;99.90;;;;;;5091351;28;20046;-63
2023/08/02 06:58:10;;;;;;;17.52;7.60;;;16.10;99.90;;;;;;5073086;28;20041;-62
2023/08/02 07:00:36;;;;;;;13.93;6.97;;;16.20;99.90;;;;;;5071523;28;20033;-63
2023/08/02 07:03:03;;;;;;;13.48;7.68;;;16.20;99.90;;;;;;5072234;28;20048;-63
2023/08/02 07:05:34;;;;;;;13.30;7.18;;;16.20;99.90;;;;;;5088356;28;20100;-63
2023/08/02 07:08:00;;;;;;;11.05;6.65;;;16.20;99.90;;;;;;5086921;28;20060;-63
2023/08/02 07:10:27;;;;;;;16.15;7.85;;;16.30;99.90;;;;;;5090125;28;20648;-62
2023/08/02 07:12:54;;;;;;;14.27;7.25;;;16.30;99.90;;;;;;5089935;28;20115;-62
2023/08/02 07:15:19;;;;;;;13.65;6.60;;;16.30;99.90;;;;;;5090910;28;20085;-62
2023/08/02 07:17:46;;;;;;;12.60;7.03;;;16.30;99.90;;;;;;5073167;28;20040;-62
2023/08/02 07:20:13;;;;;;;13.75;6.68;;;16.40;99.90;;;;;;5073523;28;20048;-63
2023/08/02 07:22:41;;;;;;;10.98;7.00;;;16.30;99.90;;;;;;5090821;28;20550;-63
2023/08/02 07:25:07;;;;;;;11.90;6.68;;;16.30;99.90;;;;;;5083887;28;20083;-62
2023/08/02 07:27:33;;;;;;;14.90;6.72;;;16.40;99.90;;;;;;5087218;28;20101;-63
2023/08/02 07:29:59;;;;;;;13.15;6.97;;;16.30;99.90;;;;;;5091572;28;20051;-63
2023/08/02 07:32:25;;;;;;;16.55;7.57;;;16.30;99.90;;;;;;5089963;28;20079;-62
2023/08/02 07:34:51;;;;;;;15.38;6.60;;;16.30;99.90;;;;;;5109082;27;20048;-62
2023/08/02 07:37:18;;;;;;;14.48;6.53;;;16.30;99.90;;;;;;5090912;28;20032;-63
2023/08/02 07:39:44;;;;;;;12.65;6.05;;;16.30;99.90;;;;;;5088967;28;20495;-63
2023/08/02 07:42:10;;;;;;;13.00;6.50;;;16.30;99.90;;;;;;5091713;28;20044;-62
2023/08/02 07:44:37;;;;;;;10.30;5.50;;;16.40;99.90;;;;;;5087550;28;20122;-63
2023/08/02 07:47:04;;;;;;;9.75;5.30;;;16.40;99.90;;;;;;5086500;28;20135;-62
2023/08/02 07:49:31;;;;;;;12.00;5.15;;;16.30;99.90;;;;;;5089906;28;20097;-63
2023/08/02 07:51:57;;;;;;;11.20;5.47;;;16.30;99.90;;;;;;5091029;28;20048;-62
2023/08/02 07:54:23;;;;;;;12.30;5.70;;;16.30;99.90;;;;;;5089246;28;20040;-63
2023/08/02 07:56:48;;;;;;;11.85;4.82;;;16.40;99.90;;;;;;5089720;28;20043;-63
2023/08/02 07:59:14;;;;;;;9.73;5.18;;;16.30;99.90;;;;;;5091324;28;20035;-62
2023/08/02 08:01:43;;;;;;;8.18;4.85;;;16.30;99.90;;;;;;5088073;28;20043;-62
2023/08/02 08:04:10;;;;;;;11.88;5.43;;;16.30;99.90;;;;;;5090750;28;20042;-62
2023/08/02 08:06:36;;;;;;;12.77;5.38;;;16.30;99.90;;;;;;5120683;27;20040;-63
2023/08/02 08:09:01;;;;;;;9.55;5.07;;;16.30;99.90;;;;;;5088152;28;20032;-63
2023/08/02 08:11:28;;;;;;;13.77;5.22;;;16.30;99.90;;;;;;5089455;28;20040;-63
2023/08/02 08:13:54;;;;;;;12.15;5.53;;;16.30;99.90;;;;;;5071539;28;20484;-63
2023/08/02 08:16:20;;;;;;;10.52;5.10;;;16.20;99.90;;;;;;5091404;28;20047;-63
2023/08/02 08:18:45;;;;;;;9.43;4.00;;;16.20;99.90;;;;;;5090693;28;20040;-63
2023/08/02 08:21:11;;;;;;;17.45;4.97;;;16.10;99.90;;;;;;5116291;27;20090;-63
2023/08/02 08:23:37;;;;;;;11.32;4.43;;;16.10;99.90;;;;;;5084064;28;20496;-63
2023/08/02 08:26:03;;;;;;;10.27;4.72;;;16.10;99.90;;;;;;5088819;28;20076;-63
2023/08/02 08:28:29;;;;;;;7.63;4.03;;;16.10;99.90;;;;;;5087668;28;20715;-63
2023/08/02 08:31:01;;;;;;;8.63;4.30;;;16.00;99.90;;;;;;5082944;28;20040;-63
2023/08/02 08:33:28;;;;;;;7.70;3.90;;;16.00;99.90;;;;;;5098407;28;20035;-63
2023/08/02 08:35:53;;;;;;;9.52;3.90;;;16.00;99.90;;;;;;5088095;28;20078;-63
2023/08/02 08:38:19;;;;;;;10.48;4.70;;;15.90;99.90;;;;;;5091059;28;20036;-63
2023/08/02 08:40:54;;;;;;;8.38;4.38;;;15.80;99.90;;;;;;5089463;28;20085;-63
2023/08/02 08:43:28;;;;;;;11.20;4.60;;;15.80;99.90;;;;;;5090195;28;20071;-63
2023/08/02 08:45:54;;;;;;;8.45;4.05;;;15.80;99.90;;;;;;5089111;28;20048;-63
2023/08/02 08:48:22;;;;;;;11.55;4.25;;;15.80;99.90;;;;;;5087452;28;20059;-63
2023/08/02 08:50:49;;;;;;;8.70;4.22;;;15.80;99.90;;;;;;5087654;28;20095;-64
2023/08/02 08:53:24;;;;;;;9.60;4.15;;;15.70;99.90;;;;;;5089247;28;20053;-64
2023/08/02 08:55:50;;;;;;;8.02;3.45;;;15.70;99.90;;;;;;5090029;28;20043;-63
2023/08/02 08:58:16;;;;;;;10.00;4.32;;;15.70;99.90;;;;;;5086506;28;20048;-63
2023/08/02 09:00:43;;;;;;;10.35;3.80;;;15.70;99.90;;;;;;5088426;28;20093;-63
2023/08/02 09:03:12;;;;;;;10.57;4.30;;;15.70;99.90;;;;;;5088488;28;20119;-63
2023/08/02 09:05:40;;;;;;;8.35;3.80;;;15.60;99.90;;;;;;5089384;28;20036;-63
2023/08/02 09:08:05;;;;;;;7.05;4.05;;;15.60;99.90;;;;;;5087697;28;20048;-63
2023/08/02 09:10:33;;;;;;;10.65;4.63;;;15.70;99.90;;;;;;5091070;28;20096;-62
2023/08/02 09:12:58;;;;;;;9.40;3.80;;;15.60;99.90;;;;;;5097388;28;20036;-60
2023/08/02 09:15:24;;;;;;;10.20;4.78;;;15.60;99.90;;;;;;5090067;28;20093;-59
2023/08/02 09:17:54;;;;;;;7.57;3.95;;;15.60;99.90;;;;;;5080807;28;20374;-59
2023/08/02 09:20:23;;;;;;;9.40;4.40;;;15.60;99.90;;;;;;5073638;28;20039;-58
2023/08/02 09:22:49;;;;;;;7.75;4.25;;;15.70;99.90;;;;;;5087122;28;20043;-59
2023/08/02 09:25:23;;;;;;;9.82;4.38;;;15.60;99.90;;;;;;5089475;28;20044;-59
2023/08/02 09:27:49;;;;;;;10.13;5.03;;;15.70;99.90;;;;;;5091156;28;20400;-59
2023/08/02 09:30:34;;;;;;;9.70;4.38;;;15.70;99.90;;;;;;5083117;28;20927;-59
2023/08/02 09:33:05;;;;;;;7.68;4.57;;;15.70;99.90;;;;;;5070003;28;20055;-59
2023/08/02 09:35:53;;;;;;;10.05;4.55;;;15.70;99.90;;;;;;5088410;28;20094;-59
2023/08/02 09:38:19;;;;;;;7.47;3.60;;;15.80;99.90;;;;;;5088691;28;20040;-59
2023/08/02 09:40:48;;;;;;;8.98;4.63;;;15.80;99.90;;;;;;5089258;28;20050;-60
2023/08/02 09:43:15;;;;;;;7.75;4.63;;;15.80;99.90;;;;;;5089564;28;20032;-60
2023/08/02 09:45:42;;;;;;;8.75;4.68;;;15.80;99.90;;;;;;5104571;28;20048;-60
2023/08/02 09:48:08;;;;;;;8.55;5.10;;;15.90;99.90;;;;;;5078948;28;20037;-60
2023/08/02 09:50:50;;;;;;;7.68;4.03;;;15.90;99.90;;;;;;5071736;28;20050;-60
2023/08/02 09:53:16;;;;;;;7.22;4.25;;;15.90;99.90;;;;;;5088247;28;20044;-60
2023/08/02 09:55:46;;;;;;;9.48;5.70;;;15.90;99.90;;;;;;5089115;28;20054;-60
2023/08/02 09:58:13;;;;;;;10.27;5.03;;;15.90;99.90;;;;;;5083297;28;20051;-59
2023/08/02 10:00:40;;;;;;;10.30;5.22;;;16.00;99.90;;;;;;5087363;28;20075;-59
2023/08/02 10:03:10;;;;;;;9.13;4.40;;;16.00;99.90;;;;;;5089088;28;20086;-59
2023/08/02 10:05:42;;;;;;;7.68;5.60;;;16.00;99.90;;;;;;5085499;28;20048;-59
2023/08/02 10:08:11;;;;;;;8.45;4.63;;;16.00;99.90;;;;;;5106752;28;20097;-59
2023/08/02 10:10:39;;;;;;;7.43;4.20;;;16.00;99.90;;;;;;5091683;28;20032;-60
2023/08/02 10:13:13;;;;;;;9.70;4.25;;;16.00;99.90;;;;;;5087077;28;20427;-60
2023/08/02 10:15:40;;;;;;;9.82;5.07;;;16.10;99.90;;;;;;5085210;28;20046;-60
2023/08/02 10:18:06;;;;;;;6.75;5.22;;;16.10;99.90;;;;;;5081364;28;20501;-60
2023/08/02 10:20:33;;;;;;;7.90;4.25;;;16.20;99.90;;;;;;5082647;28;20041;-60
2023/08/02 10:23:04;;;;;;;7.13;4.80;;;16.20;99.90;;;;;;5087755;28;20439;-60
2023/08/02 10:25:32;;;;;;;6.45;4.30;;;16.20;99.90;;;;;;5087849;28;20131;-60
2023/08/02 10:28:00;;;;;;;9.57;4.32;;;16.20;99.90;;;;;;5077600;28;20755;-60
2023/08/02 10:30:27;;;;;;;5.90;3.47;;;16.20;99.90;;;;;;5090818;28;20055;-61
2023/08/02 10:33:12;;;;;;;5.88;3.38;;;16.20;99.90;;;;;;5092890;28;20052;-60
2023/08/02 10:36:02;;;;;;;7.07;4.13;;;16.30;99.90;;;;;;5079263;28;20044;-60
2023/08/02 10:38:48;;;;;;;8.23;3.70;;;16.20;99.90;;;;;;5089578;28;20044;-60
2023/08/02 10:41:23;;;;;;;6.65;4.00;;;16.20;99.90;;;;;;5090381;28;20608;-60
2023/08/02 10:43:55;;;;;;;5.78;3.42;;;16.30;99.90;;;;;;5090629;28;20032;-60
2023/08/02 10:46:23;;;;;;;6.70;3.42;;;16.30;99.90;;;;;;5092846;28;20036;-59
2023/08/02 10:48:49;;;;;;;6.03;3.38;;;16.30;99.90;;;;;;5089925;28;20047;-59
2023/08/02 10:51:27;;;;;;;6.03;2.92;;;16.30;99.90;;;;;;5090933;28;20135;-59
2023/08/02 10:54:14;;;;;;;5.65;3.08;;;16.20;99.90;;;;;;5090656;28;20505;-59
2023/08/02 10:56:51;;;;;;;6.05;3.60;;;16.30;99.90;;;;;;5070419;28;20044;-59
2023/08/02 10:59:23;;;;;;;5.05;2.97;;;16.20;99.90;;;;;;5107613;28;20147;-59
2023/08/02 11:01:59;;;;;;;5.72;2.95;;;16.20;99.90;;;;;;5124638;27;20097;-60
2023/08/02 11:04:26;;;;;;;4.50;2.35;;;16.30;99.90;;;;;;5090627;28;20051;-60
2023/08/02 11:06:51;;;;;;;6.05;3.25;;;16.30;99.90;;;;;;5090249;28;20051;-60
2023/08/02 11:09:18;;;;;;;5.85;2.78;;;16.20;99.90;;;;;;5117023;27;20044;-60
2023/08/02 11:11:43;;;;;;;4.55;2.35;;;16.20;99.90;;;;;;5089716;28;20122;-60
2023/08/02 11:14:09;;;;;;;4.93;2.58;;;16.30;99.90;;;;;;5073821;28;20123;-60
2023/08/02 11:16:42;;;;;;;4.88;2.70;;;16.30;99.90;;;;;;5119397;27;20036;-60
2023/08/02 11:19:11;;;;;;;5.07;2.75;;;16.30;99.90;;;;;;5070302;28;20538;-60
2023/08/02 11:21:37;;;;;;;3.58;1.60;;;16.30;99.90;;;;;;5072086;28;20049;-61
2023/08/02 11:24:03;;;;;;;3.90;1.70;;;16.30;99.90;;;;;;5070688;28;20045;-61
2023/08/02 11:26:30;;;;;;;3.97;2.00;;;16.40;99.90;;;;;;5073034;28;20481;-61
2023/08/02 11:28:56;;;;;;;4.45;2.13;;;16.40;99.90;;;;;;5090179;28;20138;-61
2023/08/02 11:31:26;;;;;;;4.75;1.80;;;16.40;99.90;;;;;;5090169;28;20157;-61
2023/08/02 11:33:54;;;;;;;3.80;1.60;;;16.40;99.90;;;;;;5090208;28;20058;-61
2023/08/02 11:36:20;;;;;;;5.28;2.17;;;16.60;99.90;;;;;;5091342;28;20105;-62
2023/08/02 11:38:46;;;;;;;3.85;1.77;;;16.80;99.90;;;;;;5090246;28;20054;-62
2023/08/02 11:41:20;;;;;;;3.75;1.95;;;17.00;99.90;;;;;;5091712;28;20036;-62
2023/08/02 11:43:46;;;;;;;3.90;1.70;;;17.20;99.90;;;;;;5089442;28;20048;-62
2023/08/02 11:46:25;;;;;;;3.83;1.88;;;17.40;99.90;;;;;;5088529;28;20044;-62
2023/08/02 11:48:52;;;;;;;3.92;1.77;;;17.60;99.90;;;;;;5089490;28;20086;-61
2023/08/02 11:51:20;;;;;;;4.57;1.95;;;17.60;99.90;;;;;;5090014;28;20067;-62
2023/08/02 11:53:51;;;;;;;5.35;2.00;;;17.70;99.90;;;;;;5088590;28;20043;-61
2023/08/02 11:56:19;;;;;;;4.78;2.22;;;17.70;99.90;;;;;;5124186;27;20039;-62
2023/08/02 11:58:45;;;;;;;4.35;2.08;;;17.70;99.90;;;;;;5088855;28;20052;-62
2023/08/02 12:01:12;;;;;;;3.83;2.08;;;17.80;99.90;;;;;;5087850;28;20051;-62
2023/08/02 12:03:38;;;;;;;4.32;2.25;;;17.80;99.90;;;;;;5075052;28;20484;-62
2023/08/02 12:06:04;;;;;;;4.10;2.25;;;17.90;99.90;;;;;;5092776;28;20043;-63
2023/08/02 12:08:29;;;;;;;4.68;2.60;;;17.90;99.90;;;;;;5092553;28;20040;-62
2023/08/02 12:10:55;;;;;;;5.05;2.30;;;17.90;99.90;;;;;;5101186;28;20131;-62
2023/08/02 12:13:21;;;;;;;4.88;2.75;;;17.90;99.90;;;;;;5092360;28;20101;-62
2023/08/02 12:16:00;;;;;;;5.65;2.90;;;18.00;99.90;;;;;;5091475;28;20086;-62
2023/08/02 12:18:26;;;;;;;7.05;3.08;;;18.10;99.90;;;;;;5091986;28;20036;-62
2023/08/02 12:20:52;;;;;;;5.55;3.25;;;18.10;99.90;;;;;;5090503;28;20044;-62
2023/08/02 12:23:32;;;;;;;4.28;2.53;;;18.10;99.90;;;;;;5093216;28;20031;-62
2023/08/02 12:25:57;;;;;;;4.35;2.53;;;18.00;99.90;;;;;;5081741;28;20069;-63
2023/08/02 12:28:23;;;;;;;4.72;2.78;;;18.00;99.90;;;;;;5092112;28;20102;-63
2023/08/02 12:31:05;;;;;;;5.85;3.10;;;18.00;99.90;;;;;;5090756;28;20374;-63
2023/08/02 12:33:32;;;;;;;4.95;3.05;;;18.10;99.90;;;;;;5091379;28;20105;-63
2023/08/02 12:35:58;;;;;;;5.15;3.25;;;18.30;99.90;;;;;;5091233;28;20372;-62
2023/08/02 12:38:29;;;;;;;6.43;3.42;;;18.50;99.90;;;;;;5074953;28;20028;-63
2023/08/02 12:40:59;;;;;;;5.38;3.28;;;18.80;99.90;;;;;;5092664;28;20463;-63
2023/08/02 12:43:26;;;;;;;4.40;2.72;;;19.00;99.90;;;;;;5073030;28;20039;-63